createdAt,value
2018-08-10T00:00:09.553Z,25.6
2018-08-10T00:00:59.091Z,25.7
2018-08-10T00:01:49.674Z,25.7
2018-08-10T00:02:39.191Z,25.6
2018-08-10T00:03:29.337Z,25.6
2018-08-10T00:04:19.626Z,25.6
2018-08-10T00:05:09.721Z,25.6
2018-08-10T00:05:59.761Z,25.6
2018-08-10T00:06:50.086Z,25.6
2018-08-10T00:07:39.659Z,25.6
2018-08-10T00:08:28.661Z,25.6
2018-08-10T00:09:20.063Z,25.6
2018-08-10T00:10:10.077Z,25.6
2018-08-10T00:10:59.811Z,25.6
2018-08-10T00:11:49.074Z,25.6
2018-08-10T00:12:40.232Z,25.6
2018-08-10T00:13:29.755Z,25.6
2018-08-10T00:14:20.648Z,25.6
2018-08-10T00:15:10.664Z,25.6
2018-08-10T00:16:00.155Z,25.6
2018-08-10T00:16:50.323Z,25.6
2018-08-10T00:17:40.340Z,25.6
2018-08-10T00:18:30.138Z,25.6
2018-08-10T00:37:30.449Z,25.4
2018-08-10T00:38:20.634Z,25.5
2018-08-10T00:39:10.559Z,25.5
2018-08-10T00:40:00.637Z,25.5
2018-08-10T00:40:50.409Z,25.4
2018-08-10T00:41:40.179Z,25.4
2018-08-10T00:42:31.164Z,25.4
2018-08-10T00:43:20.937Z,25.4
2018-08-10T00:44:11.199Z,25.5
2018-08-10T00:45:00.909Z,25.4
2018-08-10T00:45:51.095Z,25.4
2018-08-10T00:46:41.389Z,25.4
2018-08-10T00:47:30.704Z,25.4
2018-08-10T00:48:20.806Z,25.4
2018-08-10T00:49:10.591Z,25.4
2018-08-10T00:50:01.286Z,25.5
2018-08-10T00:50:50.123Z,25.4
2018-08-10T00:51:41.029Z,25.4
2018-08-10T00:52:31.644Z,25.4
2018-08-10T00:53:21.171Z,25.4
2018-08-10T00:54:11.039Z,25.4
2018-08-10T00:55:01.349Z,25.4
2018-08-10T00:55:51.939Z,25.4
2018-08-10T00:56:41.134Z,25.4
2018-08-10T00:57:31.515Z,25.4
2018-08-10T00:58:21.998Z,25.4
2018-08-10T00:59:11.696Z,25.4
2018-08-10T01:00:02.231Z,25.4
2018-08-10T01:00:50.683Z,25.4
2018-08-10T01:01:41.849Z,25.4
2018-08-10T01:02:31.416Z,25.4
2018-08-10T01:03:22.514Z,25.4
2018-08-10T01:04:11.001Z,25.4
2018-08-10T01:05:01.877Z,25.4
2018-08-10T01:05:52.127Z,25.3
2018-08-10T01:06:41.103Z,25.4
2018-08-10T01:07:31.649Z,25.4
2018-08-10T01:08:21.612Z,25.4
2018-08-10T01:09:12.371Z,25.4
2018-08-10T01:10:02.515Z,25.4
2018-08-10T01:10:52.472Z,25.4
2018-08-10T01:11:42.282Z,25.4
2018-08-10T01:12:32.553Z,25.3
2018-08-10T01:13:23.289Z,25.3
2018-08-10T01:14:13.560Z,25.3
2018-08-10T01:15:03.090Z,25.3
2018-08-10T01:15:53.133Z,25.3
2018-08-10T01:16:43.882Z,25.3
2018-08-10T01:17:33.473Z,25.3
2018-08-10T01:18:23.608Z,25.3
2018-08-10T01:19:15.827Z,25.3
2018-08-10T01:20:03.743Z,25.3
2018-08-10T01:20:53.728Z,25.3
2018-08-10T01:21:43.304Z,25.3
2018-08-10T01:22:33.937Z,25.3
2018-08-10T01:23:23.761Z,25.3
2018-08-10T01:24:14.125Z,25.3
2018-08-10T01:25:03.364Z,25.3
2018-08-10T01:25:54.089Z,25.3
2018-08-10T01:26:42.899Z,25.3
2018-08-10T01:27:34.266Z,25.3
2018-08-10T01:28:24.709Z,25.3
2018-08-10T01:29:14.625Z,25.3
2018-08-10T01:30:04.903Z,25.3
2018-08-10T01:30:53.464Z,25.3
2018-08-10T01:31:44.154Z,25.3
2018-08-10T01:32:34.466Z,25.3
2018-08-10T01:33:24.039Z,25.3
2018-08-10T01:34:14.386Z,25.3
2018-08-10T01:35:05.069Z,25.3
2018-08-10T01:35:54.244Z,25.3
2018-08-10T01:36:44.501Z,25.3
2018-08-10T01:37:34.255Z,25.3
2018-08-10T01:38:25.139Z,25.3
2018-08-10T01:39:15.504Z,25.3
2018-08-10T01:40:19.322Z,25.3
2018-08-10T01:41:09.630Z,25.3
2018-08-10T01:41:46.521Z,25.3
2018-08-10T01:42:34.682Z,25.3
2018-08-10T01:43:24.921Z,25.3
2018-08-10T01:44:14.537Z,25.3
2018-08-10T01:45:05.852Z,25.3
2018-08-10T01:45:55.691Z,25.3
2018-08-10T01:46:59.045Z,25.3
2018-08-10T01:47:35.531Z,25.3
2018-08-10T01:48:25.330Z,25.3
2018-08-10T01:49:15.942Z,25.3
2018-08-10T01:50:05.775Z,25.3
2018-08-10T01:50:55.529Z,25.3
2018-08-10T01:51:46.104Z,25.2
2018-08-10T01:52:35.985Z,25.2
2018-08-10T01:53:26.270Z,25.3
2018-08-10T01:54:15.244Z,25.3
2018-08-10T01:55:05.637Z,25.2
2018-08-10T01:56:25.602Z,25.3
2018-08-10T01:56:46.749Z,25.3
2018-08-10T01:57:35.806Z,25.2
2018-08-10T01:58:26.260Z,25.2
2018-08-10T01:59:15.215Z,25.2
2018-08-10T02:00:05.578Z,25.2
2018-08-10T02:00:55.795Z,25.2
2018-08-10T02:01:46.461Z,25.2
2018-08-10T02:02:36.507Z,25.2
2018-08-10T02:03:26.025Z,25.2
2018-08-10T02:04:16.632Z,25.2
2018-08-10T02:05:06.778Z,25.2
2018-08-10T02:05:57.089Z,25.2
2018-08-10T02:06:47.112Z,25.2
2018-08-10T02:07:36.930Z,25.2
2018-08-10T02:08:26.397Z,25.2
2018-08-10T02:09:16.764Z,25.2
2018-08-10T02:10:07.122Z,25.2
2018-08-10T02:10:57.487Z,25.2
2018-08-10T02:11:47.801Z,25.2
2018-08-10T02:12:37.635Z,25.2
2018-08-10T02:13:27.312Z,25.2
2018-08-10T02:14:32.403Z,25.2
2018-08-10T02:15:08.495Z,25.2
2018-08-10T02:15:58.181Z,25.2
2018-08-10T02:16:47.866Z,25.2
2018-08-10T02:17:37.636Z,25.2
2018-08-10T02:18:27.983Z,25.1
2018-08-10T02:19:18.420Z,25.1
2018-08-10T02:20:08.354Z,25.1
2018-08-10T02:20:58.254Z,25.2
2018-08-10T02:21:48.511Z,25.2
2018-08-10T02:22:37.822Z,25.2
2018-08-10T02:23:28.363Z,25.1
2018-08-10T02:24:17.861Z,25.2
2018-08-10T02:25:23.234Z,25.1
2018-08-10T02:25:58.626Z,25.2
2018-08-10T02:26:48.613Z,25.1
2018-08-10T02:27:38.249Z,25.1
2018-08-10T02:28:28.511Z,25.2
2018-08-10T02:29:18.326Z,25.1
2018-08-10T02:30:09.491Z,25.1
2018-08-10T02:30:58.117Z,25.1
2018-08-10T02:31:49.424Z,25.1
2018-08-10T02:32:38.564Z,25.1
2018-08-10T02:33:28.881Z,25.1
2018-08-10T02:34:18.378Z,25.1
2018-08-10T02:35:08.788Z,25.1
2018-08-10T02:35:58.919Z,25.1
2018-08-10T02:36:48.580Z,25.1
2018-08-10T02:37:38.707Z,25.1
2018-08-10T02:38:29.322Z,25.1
2018-08-10T02:39:19.220Z,25.1
2018-08-10T02:40:09.481Z,25.1
2018-08-10T02:40:58.713Z,25.1
2018-08-10T02:41:48.845Z,25.1
2018-08-10T02:42:40.054Z,25.1
2018-08-10T02:43:29.181Z,25.1
2018-08-10T02:44:18.827Z,25.1
2018-08-10T02:45:10.051Z,25.1
2018-08-10T02:45:59.291Z,25.1
2018-08-10T02:46:49.644Z,25.1
2018-08-10T02:47:40.090Z,25.2
2018-08-10T02:48:28.748Z,25.1
2018-08-10T02:49:19.968Z,25.1
2018-08-10T02:50:24.514Z,25.1
2018-08-10T02:50:59.634Z,25.1
2018-08-10T02:51:49.637Z,25.1
2018-08-10T02:52:39.941Z,25.1
2018-08-10T02:53:30.149Z,25.1
2018-08-10T02:54:20.017Z,25.1
2018-08-10T02:55:10.426Z,25.1
2018-08-10T02:56:00.689Z,25.1
2018-08-10T02:56:50.822Z,25.1
2018-08-10T02:57:41.316Z,25.1
2018-08-10T02:58:31.279Z,25.1
2018-08-10T02:59:21.079Z,25.1
2018-08-10T03:00:10.381Z,25.1
2018-08-10T03:01:00.558Z,25.1
2018-08-10T03:01:50.609Z,25.1
2018-08-10T03:02:40.118Z,25.1
2018-08-10T03:03:31.536Z,25.1
2018-08-10T03:04:21.414Z,25.1
2018-08-10T03:05:10.770Z,25.1
2018-08-10T03:06:01.043Z,25.1
2018-08-10T03:06:51.518Z,25.1
2018-08-10T03:07:41.850Z,25.1
2018-08-10T03:08:30.481Z,25.1
2018-08-10T03:09:21.718Z,25.1
2018-08-10T03:10:26.587Z,25.1
2018-08-10T03:11:02.092Z,25.1
2018-08-10T03:12:06.602Z,25.1
2018-08-10T03:12:41.964Z,25.1
2018-08-10T03:13:31.773Z,25.1
2018-08-10T03:14:36.133Z,25.1
2018-08-10T03:15:12.722Z,25.1
2018-08-10T03:16:17.209Z,25.1
2018-08-10T03:16:51.950Z,25.1
2018-08-10T03:17:42.118Z,25.1
2018-08-10T03:18:31.874Z,25.1
2018-08-10T03:19:23.094Z,25.1
2018-08-10T03:20:12.816Z,25.1
2018-08-10T03:21:02.384Z,25.1
2018-08-10T03:21:53.409Z,25.1
2018-08-10T03:22:43.132Z,25.1
2018-08-10T03:23:33.339Z,25.1
2018-08-10T03:24:23.119Z,25.1
2018-08-10T03:25:13.370Z,25.1
2018-08-10T03:26:03.244Z,25.1
2018-08-10T03:26:52.232Z,25.1
2018-08-10T03:27:42.949Z,25.1
2018-08-10T03:28:32.846Z,25.1
2018-08-10T03:29:23.061Z,25.1
2018-08-10T03:30:13.920Z,25.1
2018-08-10T03:31:02.624Z,25.1
2018-08-10T03:31:52.764Z,25.1
2018-08-10T03:32:43.260Z,25.1
2018-08-10T03:33:33.790Z,25.1
2018-08-10T03:34:23.598Z,25.1
2018-08-10T03:35:13.419Z,25.1
2018-08-10T03:36:04.150Z,25.1
2018-08-10T03:36:54.333Z,25.1
2018-08-10T03:37:43.484Z,25.1
2018-08-10T03:38:34.174Z,25.1
2018-08-10T03:39:23.223Z,25.1
2018-08-10T03:40:13.811Z,25.1
2018-08-10T03:41:03.095Z,25.1
2018-08-10T03:41:53.464Z,25.1
2018-08-10T03:42:43.725Z,25.1
2018-08-10T03:43:34.572Z,25.1
2018-08-10T03:44:24.224Z,25.1
2018-08-10T03:45:14.402Z,25.1
2018-08-10T03:46:04.803Z,25.1
2018-08-10T03:46:54.966Z,25.1
2018-08-10T03:47:43.935Z,25.1
2018-08-10T03:48:34.409Z,25.1
2018-08-10T03:49:23.922Z,25.2
2018-08-10T03:50:14.151Z,25.1
2018-08-10T03:51:03.865Z,25.1
2018-08-10T03:51:54.507Z,25.1
2018-08-10T03:52:59.411Z,25.1
2018-08-10T03:53:49.749Z,25.1
2018-08-10T03:54:25.157Z,25.1
2018-08-10T03:55:15.344Z,25.1
2018-08-10T03:56:05.527Z,25.1
2018-08-10T03:56:55.338Z,25.1
2018-08-10T03:57:44.930Z,25.1
2018-08-10T03:58:33.893Z,25.1
2018-08-10T03:59:24.775Z,25.1
2018-08-10T04:00:15.790Z,25.1
2018-08-10T04:01:05.424Z,25.1
2018-08-10T04:01:55.552Z,25.1
2018-08-10T04:02:45.275Z,25.1
2018-08-10T04:03:34.835Z,25.1
2018-08-10T04:04:25.613Z,25.1
2018-08-10T04:05:15.688Z,25.1
2018-08-10T04:06:06.323Z,25.1
2018-08-10T04:06:56.168Z,25.1
2018-08-10T04:07:46.207Z,25.1
2018-08-10T04:08:35.682Z,25.1
2018-08-10T04:09:26.267Z,25.1
2018-08-10T04:10:16.172Z,25.1
2018-08-10T04:11:05.897Z,25.1
2018-08-10T04:11:55.972Z,25.1
2018-08-10T04:12:46.127Z,25.1
2018-08-10T04:13:51.059Z,25.1
2018-08-10T04:14:26.659Z,25.1
2018-08-10T04:15:16.597Z,25.1
2018-08-10T04:16:06.776Z,25.1
2018-08-10T04:16:57.109Z,25.1
2018-08-10T04:17:47.010Z,25.1
2018-08-10T04:18:37.015Z,25.1
2018-08-10T04:19:27.386Z,25.1
2018-08-10T04:20:16.653Z,25.1
2018-08-10T04:21:07.584Z,25.1
2018-08-10T04:21:56.635Z,25.1
2018-08-10T04:22:46.921Z,25.1
2018-08-10T04:23:37.408Z,25.1
2018-08-10T04:24:26.957Z,25.1
2018-08-10T04:25:17.322Z,25.1
2018-08-10T04:26:07.680Z,25.1
2018-08-10T04:26:56.574Z,25.1
2018-08-10T04:27:47.674Z,25.1
2018-08-10T04:28:37.288Z,25.1
2018-08-10T04:29:27.919Z,25.1
2018-08-10T04:30:17.331Z,25.1
2018-08-10T05:07:02.872Z,25.1
2018-08-10T05:07:52.349Z,25.1
2018-08-10T05:08:43.555Z,25.1
2018-08-10T05:09:33.604Z,25.1
2018-08-10T05:10:23.374Z,25.1
2018-08-10T05:11:12.672Z,25.1
2018-08-10T05:12:03.853Z,25.1
2018-08-10T05:12:53.640Z,25.1
2018-08-10T05:13:43.341Z,25.1
2018-08-10T05:14:33.680Z,25.1
2018-08-10T05:15:23.469Z,25.1
2018-08-10T05:16:14.115Z,25.1
2018-08-10T05:17:03.390Z,25.1
2018-08-10T05:17:52.835Z,25.1
2018-08-10T05:18:44.073Z,25.1
2018-08-10T05:19:34.111Z,25.2
2018-08-10T05:20:24.474Z,25.1
2018-08-10T05:21:14.584Z,25.1
2018-08-10T05:22:03.453Z,25.1
2018-08-10T05:22:54.081Z,25.1
2018-08-10T05:23:43.859Z,25.1
2018-08-10T05:24:34.014Z,25.1
2018-08-10T05:25:23.956Z,25.1
2018-08-10T05:26:14.669Z,25.1
2018-08-10T05:27:04.105Z,25.1
2018-08-10T05:27:55.353Z,25.1
2018-08-10T05:28:44.797Z,25.1
2018-08-10T05:29:34.879Z,25.1
2018-08-10T05:30:24.968Z,25.1
2018-08-10T05:31:14.464Z,25.1
2018-08-10T05:32:05.391Z,25.1
2018-08-10T05:32:55.439Z,25.1
2018-08-10T05:33:44.896Z,25.1
2018-08-10T05:34:33.815Z,25.1
2018-08-10T05:35:24.989Z,25.1
2018-08-10T05:36:14.966Z,25.1
2018-08-10T05:37:04.886Z,25.1
2018-08-10T05:37:55.575Z,25.1
2018-08-10T05:38:45.556Z,25.1
2018-08-10T05:39:34.210Z,25.1
2018-08-10T05:40:24.268Z,25.1
2018-08-10T05:41:15.496Z,25.1
2018-08-10T05:42:05.812Z,25.1
2018-08-10T05:42:55.371Z,25.1
2018-08-10T05:43:45.145Z,25.1
2018-08-10T05:44:35.450Z,25.1
2018-08-10T05:45:24.083Z,25.1
2018-08-10T05:46:16.667Z,25.1
2018-08-10T05:47:07.813Z,25.1
2018-08-10T05:47:55.629Z,25.1
2018-08-10T05:48:46.621Z,25.1
2018-08-10T05:49:36.090Z,25.1
2018-08-10T05:50:26.671Z,25.1
2018-08-10T05:51:16.614Z,25.1
2018-08-10T05:52:06.701Z,25.2
2018-08-10T05:52:57.054Z,25.1
2018-08-10T05:53:46.199Z,25.1
2018-08-10T05:54:37.362Z,25.2
2018-08-10T05:55:26.976Z,25.2
2018-08-10T05:56:16.927Z,25.2
2018-08-10T05:57:06.761Z,25.2
2018-08-10T05:57:55.965Z,25.2
2018-08-10T05:58:46.611Z,25.2
2018-08-10T05:59:36.079Z,25.2
2018-08-10T06:00:27.866Z,25.2
2018-08-10T06:01:17.372Z,25.2
2018-08-10T06:02:07.683Z,25.2
2018-08-10T06:02:57.464Z,25.2
2018-08-10T06:03:49.707Z,25.2
2018-08-10T06:04:37.895Z,25.2
2018-08-10T06:05:27.668Z,25.2
2018-08-10T06:06:18.000Z,25.3
2018-08-10T06:07:07.448Z,25.3
2018-08-10T06:07:57.571Z,25.3
2018-08-10T06:08:47.407Z,25.2
2018-08-10T06:09:38.504Z,25.3
2018-08-10T06:10:28.597Z,25.3
2018-08-10T06:11:17.795Z,25.3
2018-08-10T06:12:08.416Z,25.3
2018-08-10T06:12:58.238Z,25.3
2018-08-10T06:13:48.542Z,25.3
2018-08-10T06:14:38.587Z,25.3
2018-08-10T06:15:29.352Z,25.3
2018-08-10T06:16:17.665Z,25.3
2018-08-10T06:17:07.979Z,25.3
2018-08-10T06:17:58.597Z,25.3
2018-08-10T06:18:48.658Z,25.3
2018-08-10T06:19:41.314Z,25.3
2018-08-10T06:20:28.504Z,25.3
2018-08-10T06:21:18.305Z,25.3
2018-08-10T06:22:08.111Z,25.3
2018-08-10T06:22:59.962Z,25.3
2018-08-10T06:23:48.270Z,25.3
2018-08-10T06:24:38.582Z,25.3
2018-08-10T06:25:28.982Z,25.3
2018-08-10T06:26:19.836Z,25.3
2018-08-10T06:27:09.052Z,25.3
2018-08-10T06:28:01.549Z,25.3
2018-08-10T06:28:49.260Z,25.3
2018-08-10T06:29:40.120Z,25.3
2018-08-10T06:30:28.373Z,25.3
2018-08-10T06:31:18.929Z,25.3
2018-08-10T06:32:08.583Z,25.4
2018-08-10T06:32:59.818Z,25.3
2018-08-10T06:33:51.384Z,25.3
2018-08-10T06:34:40.236Z,25.3
2018-08-10T06:35:30.251Z,25.4
2018-08-10T06:36:20.041Z,25.3
2018-08-10T06:37:10.667Z,25.4
2018-08-10T06:38:00.149Z,25.4
2018-08-10T06:38:50.831Z,25.4
2018-08-10T06:39:39.885Z,25.4
2018-08-10T06:40:29.800Z,25.4
2018-08-10T06:41:19.296Z,25.4
2018-08-10T06:42:09.415Z,25.3
2018-08-10T06:43:00.850Z,25.4
2018-08-10T06:43:50.900Z,25.3
2018-08-10T06:44:41.487Z,25.3
2018-08-10T06:45:30.558Z,25.3
2018-08-10T06:46:18.507Z,25.3
2018-08-10T06:47:10.576Z,25.3
2018-08-10T06:48:00.698Z,25.3
2018-08-10T06:48:51.085Z,25.4
2018-08-10T06:49:40.212Z,25.3
2018-08-10T06:50:30.581Z,25.3
2018-08-10T06:51:23.266Z,25.4
2018-08-10T06:52:11.829Z,25.3
2018-08-10T06:53:00.758Z,25.3
2018-08-10T06:53:51.990Z,25.3
2018-08-10T06:54:41.439Z,25.4
2018-08-10T06:55:31.520Z,25.3
2018-08-10T06:56:22.372Z,25.3
2018-08-10T06:57:11.385Z,25.3
2018-08-10T06:58:01.419Z,25.3
2018-08-10T06:58:51.021Z,25.3
2018-08-10T06:59:41.636Z,25.3
2018-08-10T07:00:33.078Z,25.4
2018-08-10T07:01:22.028Z,25.3
2018-08-10T07:02:12.567Z,25.4
2018-08-10T07:03:01.849Z,25.4
2018-08-10T07:03:52.498Z,25.4
2018-08-10T07:04:41.688Z,25.4
2018-08-10T07:05:32.155Z,25.4
2018-08-10T07:06:21.578Z,25.4
2018-08-10T07:07:12.040Z,25.4
2018-08-10T07:08:03.356Z,25.4
2018-08-10T07:08:52.629Z,25.4
2018-08-10T07:09:42.940Z,25.4
2018-08-10T07:10:32.708Z,25.4
2018-08-10T07:11:23.194Z,25.4
2018-08-10T07:12:12.256Z,25.4
2018-08-10T07:13:03.194Z,25.4
2018-08-10T07:13:52.602Z,25.4
2018-08-10T07:14:43.682Z,25.4
2018-08-10T07:15:32.541Z,25.4
2018-08-10T07:16:23.211Z,25.4
2018-08-10T07:17:12.737Z,25.4
2018-08-10T07:18:02.721Z,25.4
2018-08-10T07:18:53.438Z,25.4
2018-08-10T07:19:42.870Z,25.4
2018-08-10T07:20:33.237Z,25.4
2018-08-10T07:21:23.251Z,25.4
2018-08-10T07:22:13.664Z,25.4
2018-08-10T07:23:03.657Z,25.4
2018-08-10T07:23:53.815Z,25.4
2018-08-10T07:24:43.245Z,25.4
2018-08-10T07:25:33.848Z,25.4
2018-08-10T07:26:24.245Z,25.4
2018-08-10T07:27:16.222Z,25.4
2018-08-10T07:28:04.179Z,25.4
2018-08-10T07:28:54.453Z,25.4
2018-08-10T07:29:44.477Z,25.4
2018-08-10T07:30:34.514Z,25.4
2018-08-10T07:31:24.567Z,25.4
2018-08-10T07:32:14.614Z,25.4
2018-08-10T07:33:04.474Z,25.4
2018-08-10T07:33:54.209Z,25.4
2018-08-10T07:34:45.154Z,25.4
2018-08-10T07:35:34.301Z,25.4
2018-08-10T07:36:24.980Z,25.4
2018-08-10T07:37:14.997Z,25.4
2018-08-10T07:38:04.258Z,25.4
2018-08-10T07:38:54.404Z,25.4
2018-08-10T07:39:44.414Z,25.4
2018-08-10T07:40:34.831Z,25.4
2018-08-10T07:41:25.521Z,25.4
2018-08-10T07:42:14.068Z,25.5
2018-08-10T07:43:05.576Z,25.4
2018-08-10T07:43:55.291Z,25.4
2018-08-10T07:44:44.620Z,25.4
2018-08-10T07:45:34.692Z,25.5
2018-08-10T07:46:25.702Z,25.5
2018-08-10T07:47:15.876Z,25.5
2018-08-10T07:48:05.948Z,25.4
2018-08-10T07:48:55.703Z,25.4
2018-08-10T07:49:45.529Z,25.5
2018-08-10T07:50:35.298Z,25.5
2018-08-10T07:51:25.911Z,25.5
2018-08-10T07:52:16.568Z,25.5
2018-08-10T07:53:04.530Z,25.5
2018-08-10T07:53:56.677Z,25.5
2018-08-10T07:54:46.172Z,25.5
2018-08-10T07:55:35.149Z,25.5
2018-08-10T07:56:25.757Z,25.5
2018-08-10T07:57:15.846Z,25.5
2018-08-10T07:58:06.336Z,25.5
2018-08-10T07:58:57.162Z,25.5
2018-08-10T07:59:45.951Z,25.5
2018-08-10T08:00:36.546Z,25.5
2018-08-10T08:01:27.258Z,25.5
2018-08-10T08:02:15.560Z,25.5
2018-08-10T08:03:06.794Z,25.5
2018-08-10T08:03:56.853Z,25.5
2018-08-10T08:04:46.622Z,25.5
2018-08-10T08:05:36.991Z,25.5
2018-08-10T08:06:27.167Z,25.6
2018-08-10T08:07:21.770Z,25.5
2018-08-10T08:08:07.377Z,25.6
2018-08-10T08:08:57.053Z,25.5
2018-08-10T08:09:47.328Z,25.5
2018-08-10T08:10:38.780Z,25.5
2018-08-10T08:11:27.377Z,25.5
2018-08-10T08:12:17.733Z,25.6
2018-08-10T08:13:07.712Z,25.6
2018-08-10T08:13:58.707Z,25.5
2018-08-10T08:14:46.920Z,25.6
2018-08-10T08:15:37.252Z,25.5
2018-08-10T08:16:27.572Z,25.5
2018-08-10T08:17:17.141Z,25.5
2018-08-10T08:18:08.272Z,25.5
2018-08-10T08:18:57.762Z,25.6
2018-08-10T08:19:49.188Z,25.6
2018-08-10T08:20:38.190Z,25.6
2018-08-10T08:21:27.808Z,25.6
2018-08-10T08:22:18.645Z,25.6
2018-08-10T08:23:08.129Z,25.6
2018-08-10T08:23:58.230Z,25.5
2018-08-10T08:24:48.482Z,25.6
2018-08-10T08:25:37.512Z,25.6
2018-08-10T08:26:28.957Z,25.6
2018-08-10T08:27:19.794Z,25.5
2018-08-10T08:28:08.520Z,25.6
2018-08-10T08:28:58.250Z,25.6
2018-08-10T08:29:48.597Z,25.6
2018-08-10T08:30:39.255Z,25.6
2018-08-10T08:31:28.806Z,25.6
2018-08-10T08:32:18.571Z,25.6
2018-08-10T08:33:09.371Z,25.6
2018-08-10T08:33:58.651Z,25.6
2018-08-10T08:34:51.411Z,25.6
2018-08-10T08:35:37.564Z,25.6
2018-08-10T08:36:29.416Z,25.6
2018-08-10T08:37:18.997Z,25.6
2018-08-10T08:38:09.587Z,25.6
2018-08-10T08:38:59.312Z,25.6
2018-08-10T08:39:49.679Z,25.6
2018-08-10T08:40:39.734Z,25.6
2018-08-10T08:41:28.609Z,25.6
2018-08-10T08:42:19.533Z,25.6
2018-08-10T08:43:10.294Z,25.6
2018-08-10T08:44:00.001Z,25.6
2018-08-10T08:44:49.340Z,25.6
2018-08-10T08:45:41.745Z,25.6
2018-08-10T08:46:36.339Z,25.6
2018-08-10T08:47:20.487Z,25.6
2018-08-10T08:48:10.608Z,25.6
2018-08-10T08:48:59.806Z,25.6
2018-08-10T08:49:49.361Z,25.6
2018-08-10T08:50:39.652Z,25.6
2018-08-10T08:51:31.200Z,25.6
2018-08-10T08:52:21.242Z,25.6
2018-08-10T08:53:10.423Z,25.6
2018-08-10T08:54:02.087Z,25.6
2018-08-10T08:54:50.940Z,25.6
2018-08-10T08:55:41.510Z,25.6
2018-08-10T08:56:30.693Z,25.6
2018-08-10T08:57:22.632Z,25.6
2018-08-10T08:58:11.085Z,25.6
2018-08-10T08:59:00.851Z,25.6
2018-08-10T08:59:51.349Z,25.6
2018-08-10T09:00:41.595Z,25.6
2018-08-10T09:01:31.428Z,25.7
2018-08-10T09:02:20.820Z,25.7
2018-08-10T09:03:10.337Z,25.6
2018-08-10T09:04:00.391Z,25.6
2018-08-10T09:21:18.090Z,25.7
2018-08-10T09:22:08.910Z,25.7
2018-08-10T09:22:58.221Z,25.7
2018-08-10T09:23:48.493Z,25.7
2018-08-10T09:24:38.825Z,25.7
2018-08-10T09:25:28.646Z,25.7
2018-08-10T09:26:18.059Z,25.7
2018-08-10T09:27:10.396Z,25.7
2018-08-10T09:27:59.163Z,25.7
2018-08-10T09:28:49.390Z,25.7
2018-08-10T09:29:39.451Z,25.8
2018-08-10T09:30:29.280Z,25.7
2018-08-10T09:31:18.880Z,25.7
2018-08-10T09:32:09.458Z,25.7
2018-08-10T09:32:59.395Z,25.7
2018-08-10T09:33:49.638Z,25.8
2018-08-10T09:34:39.948Z,25.8
2018-08-10T09:35:29.092Z,25.7
2018-08-10T09:36:19.788Z,25.8
2018-08-10T09:37:09.824Z,25.7
2018-08-10T09:38:00.224Z,25.8
2018-08-10T09:38:50.078Z,25.8
2018-08-10T09:39:39.407Z,25.7
2018-08-10T09:40:29.517Z,25.8
2018-08-10T09:41:19.821Z,25.8
2018-08-10T09:42:11.491Z,25.8
2018-08-10T09:43:00.156Z,25.8
2018-08-10T09:43:56.144Z,25.7
2018-08-10T09:44:38.986Z,25.8
2018-08-10T09:45:30.560Z,25.8
2018-08-10T09:46:20.786Z,25.8
2018-08-10T09:47:10.036Z,25.8
2018-08-10T09:48:00.455Z,25.8
2018-08-10T09:48:50.713Z,25.8
2018-08-10T09:49:41.244Z,25.8
2018-08-10T09:50:30.945Z,25.8
2018-08-10T09:51:21.158Z,25.8
2018-08-10T09:52:10.242Z,25.8
2018-08-10T09:53:01.597Z,25.8
2018-08-10T09:53:51.335Z,25.8
2018-08-10T09:54:40.633Z,25.8
2018-08-10T09:55:30.687Z,25.8
2018-08-10T09:56:20.694Z,25.8
2018-08-10T09:57:11.348Z,25.8
2018-08-10T09:58:02.030Z,25.8
2018-08-10T09:58:50.967Z,25.8
2018-08-10T09:59:41.643Z,25.8
2018-08-10T10:00:31.687Z,25.8
2018-08-10T10:01:21.441Z,25.8
2018-08-10T10:02:11.786Z,25.8
2018-08-10T10:03:01.543Z,25.8
2018-08-10T10:03:51.932Z,25.8
2018-08-10T10:04:41.421Z,25.8
2018-08-10T10:05:32.077Z,25.8
2018-08-10T10:06:21.343Z,25.8
2018-08-10T10:07:12.482Z,25.8
2018-08-10T10:08:01.659Z,25.8
2018-08-10T10:08:52.675Z,25.8
2018-08-10T10:09:42.835Z,25.8
2018-08-10T10:10:32.430Z,25.8
2018-08-10T10:11:22.975Z,25.8
2018-08-10T10:12:12.578Z,25.8
2018-08-10T10:13:02.303Z,25.8
2018-08-10T10:13:53.253Z,25.8
2018-08-10T10:14:42.895Z,25.8
2018-08-10T10:15:32.398Z,25.8
2018-08-10T10:16:23.022Z,25.8
2018-08-10T10:17:13.174Z,25.8
2018-08-10T10:18:02.948Z,25.8
2018-08-10T10:18:52.777Z,25.8
2018-08-10T10:19:41.368Z,25.8
2018-08-10T10:20:31.989Z,25.8
2018-08-10T10:21:23.316Z,25.8
2018-08-10T10:22:13.053Z,25.8
2018-08-10T10:23:03.774Z,25.8
2018-08-10T10:23:52.864Z,25.8
2018-08-10T10:24:42.616Z,25.8
2018-08-10T10:25:33.448Z,25.8
2018-08-10T10:26:23.321Z,25.8
2018-08-10T10:27:13.991Z,25.8
2018-08-10T10:28:03.581Z,25.8
2018-08-10T10:28:53.740Z,25.8
2018-08-10T10:29:43.494Z,25.8
2018-08-10T10:30:34.441Z,25.8
2018-08-10T10:31:23.934Z,25.8
2018-08-10T10:32:13.671Z,25.8
2018-08-10T10:33:04.188Z,25.8
2018-08-10T10:33:53.346Z,25.8
2018-08-10T10:34:44.807Z,25.8
2018-08-10T10:35:34.695Z,25.8
2018-08-10T10:36:24.433Z,25.8
2018-08-10T10:37:13.975Z,25.8
2018-08-10T10:38:04.353Z,25.8
2018-08-10T10:38:53.272Z,25.8
2018-08-10T10:39:45.294Z,25.8
2018-08-10T10:40:34.768Z,25.8
2018-08-10T10:41:25.819Z,25.8
2018-08-10T10:42:14.435Z,25.8
2018-08-10T10:43:04.454Z,25.8
2018-08-10T10:43:54.549Z,25.8
2018-08-10T10:44:44.407Z,25.8
2018-08-10T10:45:35.171Z,25.8
2018-08-10T10:46:25.789Z,25.8
2018-08-10T10:47:15.844Z,25.8
2018-08-10T10:48:05.096Z,25.8
2018-08-10T10:48:56.785Z,25.8
2018-08-10T10:49:44.190Z,25.8
2018-08-10T10:50:35.575Z,25.8
2018-08-10T10:51:25.180Z,25.8
2018-08-10T10:52:15.973Z,25.8
2018-08-10T10:53:05.760Z,25.9
2018-08-10T10:53:56.017Z,25.8
2018-08-10T10:54:45.327Z,25.8
2018-08-10T10:55:36.532Z,25.8
2018-08-10T10:56:25.231Z,25.8
2018-08-10T10:57:15.579Z,25.8
2018-08-10T10:58:06.420Z,25.8
2018-08-10T10:58:55.959Z,25.9
2018-08-10T10:59:45.675Z,25.9
2018-08-10T11:00:35.006Z,25.9
2018-08-10T11:01:26.154Z,25.9
2018-08-10T11:02:16.743Z,25.8
2018-08-10T11:03:06.493Z,25.8
2018-08-10T11:03:56.557Z,25.9
2018-08-10T11:04:46.843Z,25.8
2018-08-10T11:05:36.471Z,25.9
2018-08-10T11:06:29.343Z,25.9
2018-08-10T11:07:16.816Z,25.9
2018-08-10T11:08:06.899Z,25.9
2018-08-10T11:08:56.892Z,25.9
2018-08-10T11:09:46.969Z,25.9
2018-08-10T11:10:37.312Z,25.9
2018-08-10T11:11:27.348Z,25.9
2018-08-10T11:12:17.456Z,25.9
2018-08-10T11:13:07.309Z,25.9
2018-08-10T11:13:57.020Z,25.9
2018-08-10T11:14:47.151Z,25.9
2018-08-10T11:15:37.481Z,25.9
2018-08-10T11:16:27.488Z,25.9
2018-08-10T11:17:17.839Z,25.9
2018-08-10T11:18:10.017Z,25.9
2018-08-10T11:18:57.577Z,25.9
2018-08-10T11:19:47.098Z,25.9
2018-08-10T11:20:37.475Z,25.9
2018-08-10T11:21:27.232Z,25.9
2018-08-10T11:22:17.808Z,25.9
2018-08-10T11:23:07.894Z,25.9
2018-08-10T11:23:59.025Z,25.9
2018-08-10T11:24:48.538Z,25.9
2018-08-10T11:25:39.695Z,25.9
2018-08-10T11:26:28.423Z,25.9
2018-08-10T11:27:17.921Z,25.9
2018-08-10T11:28:09.127Z,25.9
2018-08-10T11:28:58.585Z,25.9
2018-08-10T11:29:48.642Z,25.9
2018-08-10T11:30:39.021Z,25.9
2018-08-10T11:31:28.256Z,25.9
2018-08-10T11:32:18.661Z,25.9
2018-08-10T11:33:09.258Z,25.9
2018-08-10T11:33:58.991Z,25.9
2018-08-10T11:34:49.044Z,25.9
2018-08-10T11:35:38.612Z,25.9
2018-08-10T11:36:28.985Z,25.9
2018-08-10T11:37:18.940Z,25.9
2018-08-10T11:38:08.740Z,25.9
2018-08-10T11:38:59.413Z,25.9
2018-08-10T11:39:48.928Z,25.9
2018-08-10T11:40:39.348Z,25.9
2018-08-10T11:41:30.009Z,25.9
2018-08-10T11:42:19.515Z,25.9
2018-08-10T11:43:09.503Z,25.9
2018-08-10T11:43:59.784Z,25.9
2018-08-10T11:44:50.476Z,25.9
2018-08-10T11:45:39.363Z,25.9
2018-08-10T11:46:29.690Z,25.9
2018-08-10T11:47:18.960Z,25.9
2018-08-10T11:48:10.332Z,25.9
2018-08-10T11:48:59.898Z,25.9
2018-08-10T11:49:49.354Z,25.9
2018-08-10T11:50:39.423Z,25.9
2018-08-10T11:51:30.599Z,25.9
2018-08-10T11:52:20.641Z,25.9
2018-08-10T11:53:10.427Z,25.9
2018-08-10T11:54:00.531Z,25.9
2018-08-10T11:54:50.271Z,25.9
2018-08-10T11:55:39.872Z,25.9
2018-08-10T11:56:30.838Z,25.9
2018-08-10T11:57:20.733Z,25.9
2018-08-10T11:58:10.070Z,25.9
2018-08-10T11:59:01.031Z,25.9
2018-08-10T11:59:50.304Z,25.9
2018-08-10T12:00:40.823Z,25.9
2018-08-10T12:01:30.260Z,25.9
2018-08-10T12:02:20.600Z,25.9
2018-08-10T12:03:11.934Z,25.9
2018-08-10T12:04:00.867Z,25.9
2018-08-10T12:04:51.342Z,25.9
2018-08-10T12:05:41.662Z,25.9
2018-08-10T12:06:31.520Z,25.9
2018-08-10T12:07:21.590Z,25.9
2018-08-10T12:08:11.685Z,25.9
2018-08-10T12:09:01.991Z,25.9
2018-08-10T12:09:52.016Z,25.9
2018-08-10T12:10:41.820Z,25.9
2018-08-10T12:11:31.058Z,25.9
2018-08-10T12:12:22.077Z,25.9
2018-08-10T12:13:12.046Z,25.9
2018-08-10T12:14:02.377Z,25.9
2018-08-10T12:14:52.107Z,25.9
2018-08-10T12:15:42.688Z,25.9
2018-08-10T12:16:31.678Z,25.9